sensor_id;sensor_type;location;lat;lon;timestamp;pressure;altitude;pressure_sealevel;temperature;humidity
5062;BME280;2351;50.812;12.872;2023-11-22T00:00:07;98440.53;;;-1.40;100.00
5062;BME280;2351;50.812;12.872;2023-11-22T00:02:40;98439.88;;;-1.46;100.00
5062;BME280;2351;50.812;12.872;2023-11-22T00:05:13;98441.69;;;-1.50;100.00
5062;BME280;2351;50.812;12.872;2023-11-22T00:07:45;98445.91;;;-1.46;100.00
5062;BME280;2351;50.812;12.872;2023-11-22T00:10:16;98440.88;;;-1.52;100.00
5062;BME280;2351;50.812;12.872;2023-11-22T00:12:48;98448.63;;;-1.50;100.00
5062;BME280;2351;50.812;12.872;2023-11-22T00:15:20;98438.41;;;-1.55;100.00
5062;BME280;2351;50.812;12.872;2023-11-22T00:17:52;98445.22;;;-1.53;100.00
5062;BME280;2351;50.812;12.872;2023-11-22T00:20:25;98442.88;;;-1.60;100.00
5062;BME280;2351;50.812;12.872;2023-11-22T00:22:57;98441.91;;;-1.58;100.00
5062;BME280;2351;50.812;12.872;2023-11-22T00:25:29;98442.72;;;-1.56;100.00
5062;BME280;2351;50.812;12.872;2023-11-22T00:28:00;98449.09;;;-1.66;100.00
5062;BME280;2351;50.812;12.872;2023-11-22T00:30:33;98451.47;;;-1.58;100.00
5062;BME280;2351;50.812;12.872;2023-11-22T00:33:04;98456.66;;;-1.58;100.00
5062;BME280;2351;50.812;12.872;2023-11-22T00:35:37;98456.06;;;-1.68;100.00
5062;BME280;2351;50.812;12.872;2023-11-22T00:38:09;98455.19;;;-1.69;100.00
5062;BME280;2351;50.812;12.872;2023-11-22T00:40:41;98462.00;;;-1.64;100.00
5062;BME280;2351;50.812;12.872;2023-11-22T00:43:12;98450.16;;;-1.73;100.00
5062;BME280;2351;50.812;12.872;2023-11-22T00:45:44;98452.09;;;-1.82;100.00
5062;BME280;2351;50.812;12.872;2023-11-22T00:48:16;98452.22;;;-1.86;100.00
5062;BME280;2351;50.812;12.872;2023-11-22T00:50:49;98462.53;;;-1.83;100.00
5062;BME280;2351;50.812;12.872;2023-11-22T00:53:21;98460.69;;;-1.79;100.00
5062;BME280;2351;50.812;12.872;2023-11-22T00:55:53;98463.25;;;-1.78;100.00
5062;BME280;2351;50.812;12.872;2023-11-22T00:58:26;98472.69;;;-1.75;100.00
5062;BME280;2351;50.812;12.872;2023-11-22T01:00:57;98479.59;;;-1.76;100.00
5062;BME280;2351;50.812;12.872;2023-11-22T01:03:29;98482.41;;;-1.84;100.00
5062;BME280;2351;50.812;12.872;2023-11-22T01:06:03;98490.00;;;-1.76;100.00
5062;BME280;2351;50.812;12.872;2023-11-22T01:08:36;98500.38;;;-1.76;100.00
5062;BME280;2351;50.812;12.872;2023-11-22T01:11:08;98502.28;;;-1.81;100.00
5062;BME280;2351;50.812;12.872;2023-11-22T01:13:40;98504.28;;;-1.92;100.00
5062;BME280;2351;50.812;12.872;2023-11-22T01:16:13;98503.47;;;-1.94;100.00
5062;BME280;2351;50.812;12.872;2023-11-22T01:18:46;98507.63;;;-1.87;100.00
5062;BME280;2351;50.812;12.872;2023-11-22T01:21:19;98509.25;;;-1.85;100.00
5062;BME280;2351;50.812;12.872;2023-11-22T01:23:50;98516.91;;;-1.78;100.00
5062;BME280;2351;50.812;12.872;2023-11-22T01:26:22;98512.47;;;-1.75;100.00
5062;BME280;2351;50.812;12.872;2023-11-22T01:28:54;98521.13;;;-1.76;100.00
5062;BME280;2351;50.812;12.872;2023-11-22T01:31:25;98524.75;;;-1.82;100.00
5062;BME280;2351;50.812;12.872;2023-11-22T01:33:57;98521.41;;;-1.85;100.00
5062;BME280;2351;50.812;12.872;2023-11-22T01:36:30;98524.13;;;-1.90;100.00
5062;BME280;2351;50.812;12.872;2023-11-22T01:39:02;98517.31;;;-1.94;100.00
5062;BME280;2351;50.812;12.872;2023-11-22T01:41:34;98516.63;;;-2.01;100.00
5062;BME280;2351;50.812;12.872;2023-11-22T01:44:05;98510.50;;;-1.98;100.00
5062;BME280;2351;50.812;12.872;2023-11-22T01:46:37;98509.53;;;-1.94;100.00
5062;BME280;2351;50.812;12.872;2023-11-22T01:49:10;98517.47;;;-2.00;100.00
5062;BME280;2351;50.812;12.872;2023-11-22T01:51:43;98512.34;;;-2.03;100.00
5062;BME280;2351;50.812;12.872;2023-11-22T01:54:18;98516.63;;;-2.01;100.00
5062;BME280;2351;50.812;12.872;2023-11-22T01:56:50;98526.91;;;-1.98;100.00
5062;BME280;2351;50.812;12.872;2023-11-22T01:59:22;98536.59;;;-2.04;100.00
5062;BME280;2351;50.812;12.872;2023-11-22T02:01:56;98528.16;;;-2.13;100.00
5062;BME280;2351;50.812;12.872;2023-11-22T02:04:28;98534.88;;;-2.05;100.00
5062;BME280;2351;50.812;12.872;2023-11-22T02:07:02;98535.81;;;-2.08;100.00
5062;BME280;2351;50.812;12.872;2023-11-22T02:09:33;98534.06;;;-2.07;100.00
5062;BME280;2351;50.812;12.872;2023-11-22T02:12:06;98536.63;;;-2.06;100.00
5062;BME280;2351;50.812;12.872;2023-11-22T02:14:38;98526.28;;;-2.07;100.00
5062;BME280;2351;50.812;12.872;2023-11-22T02:17:10;98534.00;;;-2.04;100.00
5062;BME280;2351;50.812;12.872;2023-11-22T02:19:42;98542.91;;;-2.15;100.00
5062;BME280;2351;50.812;12.872;2023-11-22T02:22:15;98535.91;;;-2.11;100.00
5062;BME280;2351;50.812;12.872;2023-11-22T02:24:48;98540.31;;;-2.15;100.00
5062;BME280;2351;50.812;12.872;2023-11-22T02:27:20;98549.75;;;-2.10;100.00
5062;BME280;2351;50.812;12.872;2023-11-22T02:29:52;98556.69;;;-2.13;100.00
5062;BME280;2351;50.812;12.872;2023-11-22T02:32:24;98562.72;;;-2.10;100.00
5062;BME280;2351;50.812;12.872;2023-11-22T02:34:58;98566.00;;;-2.04;100.00
5062;BME280;2351;50.812;12.872;2023-11-22T02:37:31;98562.59;;;-2.07;100.00
5062;BME280;2351;50.812;12.872;2023-11-22T02:40:06;98554.19;;;-2.17;100.00
5062;BME280;2351;50.812;12.872;2023-11-22T02:42:41;98556.69;;;-2.13;100.00
5062;BME280;2351;50.812;12.872;2023-11-22T02:45:13;98562.72;;;-2.12;100.00
5062;BME280;2351;50.812;12.872;2023-11-22T02:47:45;98566.09;;;-2.08;100.00
5062;BME280;2351;50.812;12.872;2023-11-22T02:50:17;98561.63;;;-2.02;100.00
5062;BME280;2351;50.812;12.872;2023-11-22T02:52:49;98563.41;;;-2.04;100.00
5062;BME280;2351;50.812;12.872;2023-11-22T02:55:22;98569.50;;;-2.06;100.00
5062;BME280;2351;50.812;12.872;2023-11-22T02:57:55;98568.91;;;-2.18;100.00
5062;BME280;2351;50.812;12.872;2023-11-22T03:00:27;98574.22;;;-2.22;100.00
5062;BME280;2351;50.812;12.872;2023-11-22T03:02:59;98575.00;;;-2.19;100.00
5062;BME280;2351;50.812;12.872;2023-11-22T03:05:31;98585.38;;;-2.19;100.00
5062;BME280;2351;50.812;12.872;2023-11-22T03:08:03;98581.16;;;-2.23;100.00
5062;BME280;2351;50.812;12.872;2023-11-22T03:10:38;98584.50;;;-2.18;100.00
5062;BME280;2351;50.812;12.872;2023-11-22T03:13:10;98593.84;;;-2.12;100.00
5062;BME280;2351;50.812;12.872;2023-11-22T03:15:43;98603.22;;;-2.06;100.00
5062;BME280;2351;50.812;12.872;2023-11-22T03:18:14;98600.56;;;-2.03;100.00
5062;BME280;2351;50.812;12.872;2023-11-22T03:20:46;98605.13;;;-2.13;100.00
5062;BME280;2351;50.812;12.872;2023-11-22T03:23:18;98608.47;;;-2.09;100.00
5062;BME280;2351;50.812;12.872;2023-11-22T03:25:51;98606.69;;;-2.06;100.00
5062;BME280;2351;50.812;12.872;2023-11-22T03:28:23;98617.97;;;-2.08;100.00
5062;BME280;2351;50.812;12.872;2023-11-22T03:30:54;98607.53;;;-2.05;100.00
5062;BME280;2351;50.812;12.872;2023-11-22T03:33:26;98610.94;;;-2.03;100.00
5062;BME280;2351;50.812;12.872;2023-11-22T03:35:58;98608.25;;;-1.99;100.00
5062;BME280;2351;50.812;12.872;2023-11-22T03:38:29;98608.19;;;-1.97;100.00
5062;BME280;2351;50.812;12.872;2023-11-22T03:41:02;98616.06;;;-2.00;100.00
5062;BME280;2351;50.812;12.872;2023-11-22T03:43:35;98620.50;;;-2.05;100.00
5062;BME280;2351;50.812;12.872;2023-11-22T03:46:07;98621.28;;;-2.02;100.00
5062;BME280;2351;50.812;12.872;2023-11-22T03:48:38;98633.19;;;-1.93;100.00
5062;BME280;2351;50.812;12.872;2023-11-22T03:51:10;98639.38;;;-1.99;100.00
5062;BME280;2351;50.812;12.872;2023-11-22T03:53:42;98645.47;;;-2.01;100.00
5062;BME280;2351;50.812;12.872;2023-11-22T03:56:15;98654.22;;;-2.04;100.00
5062;BME280;2351;50.812;12.872;2023-11-22T03:58:46;98662.06;;;-2.08;100.00
5062;BME280;2351;50.812;12.872;2023-11-22T04:01:19;98671.84;;;-2.20;100.00
5062;BME280;2351;50.812;12.872;2023-11-22T04:03:50;98677.09;;;-2.23;100.00
5062;BME280;2351;50.812;12.872;2023-11-22T04:06:24;98682.44;;;-2.29;100.00
5062;BME280;2351;50.812;12.872;2023-11-22T04:08:55;98690.97;;;-2.24;100.00
5062;BME280;2351;50.812;12.872;2023-11-22T04:11:28;98700.41;;;-2.20;100.00
5062;BME280;2351;50.812;12.872;2023-11-22T04:14:01;98703.16;;;-2.28;100.00
5062;BME280;2351;50.812;12.872;2023-11-22T04:16:33;98707.63;;;-2.34;100.00
5062;BME280;2351;50.812;12.872;2023-11-22T04:19:05;98712.66;;;-2.28;100.00
5062;BME280;2351;50.812;12.872;2023-11-22T04:21:36;98704.22;;;-2.36;100.00
5062;BME280;2351;50.812;12.872;2023-11-22T04:24:08;98712.00;;;-2.36;100.00
5062;BME280;2351;50.812;12.872;2023-11-22T04:26:41;98715.47;;;-2.37;100.00
5062;BME280;2351;50.812;12.872;2023-11-22T04:29:13;98714.59;;;-2.38;100.00
5062;BME280;2351;50.812;12.872;2023-11-22T04:31:45;98708.63;;;-2.42;100.00
5062;BME280;2351;50.812;12.872;2023-11-22T04:34:16;98710.50;;;-2.48;100.00
5062;BME280;2351;50.812;12.872;2023-11-22T04:36:48;98700.97;;;-2.46;100.00
5062;BME280;2351;50.812;12.872;2023-11-22T04:39:20;98709.59;;;-2.46;100.00
5062;BME280;2351;50.812;12.872;2023-11-22T04:41:53;98706.75;;;-2.33;100.00
5062;BME280;2351;50.812;12.872;2023-11-22T04:44:24;98710.22;;;-2.34;100.00
5062;BME280;2351;50.812;12.872;2023-11-22T04:46:56;98719.00;;;-2.42;100.00
5062;BME280;2351;50.812;12.872;2023-11-22T04:49:29;98726.84;;;-2.43;100.00
5062;BME280;2351;50.812;12.872;2023-11-22T04:52:03;98735.28;;;-2.35;100.00
5062;BME280;2351;50.812;12.872;2023-11-22T04:54:34;98736.34;;;-2.44;100.00
5062;BME280;2351;50.812;12.872;2023-11-22T04:57:07;98736.28;;;-2.40;100.00
5062;BME280;2351;50.812;12.872;2023-11-22T04:59:39;98730.97;;;-2.34;100.00
5062;BME280;2351;50.812;12.872;2023-11-22T05:02:11;98731.81;;;-2.34;100.00
5062;BME280;2351;50.812;12.872;2023-11-22T05:04:42;98730.88;;;-2.31;100.00
5062;BME280;2351;50.812;12.872;2023-11-22T05:07:18;98739.53;;;-2.31;100.00
5062;BME280;2351;50.812;12.872;2023-11-22T05:09:49;98737.88;;;-2.33;100.00
5062;BME280;2351;50.812;12.872;2023-11-22T05:12:22;98736.88;;;-2.29;100.00
5062;BME280;2351;50.812;12.872;2023-11-22T05:14:54;98737.66;;;-2.24;100.00
5062;BME280;2351;50.812;12.872;2023-11-22T05:17:26;98748.06;;;-2.25;100.00
5062;BME280;2351;50.812;12.872;2023-11-22T05:19:58;98740.22;;;-2.22;100.00
5062;BME280;2351;50.812;12.872;2023-11-22T05:22:30;98742.19;;;-2.34;100.00
5062;BME280;2351;50.812;12.872;2023-11-22T05:25:01;98749.03;;;-2.30;100.00
5062;BME280;2351;50.812;12.872;2023-11-22T05:27:35;98756.75;;;-2.28;100.00
5062;BME280;2351;50.812;12.872;2023-11-22T05:30:07;98759.38;;;-2.30;100.00
5062;BME280;2351;50.812;12.872;2023-11-22T05:32:41;98763.97;;;-2.43;100.00
5062;BME280;2351;50.812;12.872;2023-11-22T05:35:13;98767.44;;;-2.44;100.00
5062;BME280;2351;50.812;12.872;2023-11-22T05:37:45;98761.28;;;-2.38;100.00
5062;BME280;2351;50.812;12.872;2023-11-22T05:40:16;98761.22;;;-2.35;100.00
5062;BME280;2351;50.812;12.872;2023-11-22T05:42:49;98768.13;;;-2.34;100.00
5062;BME280;2351;50.812;12.872;2023-11-22T05:45:21;98774.34;;;-2.43;100.00
5062;BME280;2351;50.812;12.872;2023-11-22T05:47:54;98769.88;;;-2.34;100.00
5062;BME280;2351;50.812;12.872;2023-11-22T05:50:25;98769.72;;;-2.27;100.00
5062;BME280;2351;50.812;12.872;2023-11-22T05:52:57;98772.25;;;-2.25;100.00
5062;BME280;2351;50.812;12.872;2023-11-22T05:55:29;98777.25;;;-2.16;100.00
5062;BME280;2351;50.812;12.872;2023-11-22T05:58:02;98773.91;;;-2.21;100.00
5062;BME280;2351;50.812;12.872;2023-11-22T06:00:33;98774.19;;;-2.35;100.00
5062;BME280;2351;50.812;12.872;2023-11-22T06:03:05;98777.56;;;-2.31;100.00
5062;BME280;2351;50.812;12.872;2023-11-22T06:05:37;98779.28;;;-2.30;100.00
5062;BME280;2351;50.812;12.872;2023-11-22T06:08:08;98786.25;;;-2.32;100.00
5062;BME280;2351;50.812;12.872;2023-11-22T06:10:40;98796.69;;;-2.35;100.00
5062;BME280;2351;50.812;12.872;2023-11-22T06:13:13;98793.28;;;-2.37;100.00
5062;BME280;2351;50.812;12.872;2023-11-22T06:15:45;98795.81;;;-2.34;100.00
5062;BME280;2351;50.812;12.872;2023-11-22T06:18:17;98817.38;;;-2.34;100.00
5062;BME280;2351;50.812;12.872;2023-11-22T06:20:49;98801.78;;;-2.31;100.00
5062;BME280;2351;50.812;12.872;2023-11-22T06:23:20;98813.06;;;-2.33;100.00
5062;BME280;2351;50.812;12.872;2023-11-22T06:25:52;98821.63;;;-2.30;100.00
5062;BME280;2351;50.812;12.872;2023-11-22T06:28:25;98826.03;;;-2.33;100.00
5062;BME280;2351;50.812;12.872;2023-11-22T06:30:57;98839.81;;;-2.31;100.00
5062;BME280;2351;50.812;12.872;2023-11-22T06:33:29;98832.78;;;-2.26;100.00
5062;BME280;2351;50.812;12.872;2023-11-22T06:36:01;98837.97;;;-2.26;100.00
5062;BME280;2351;50.812;12.872;2023-11-22T06:38:32;98850.13;;;-2.28;100.00
5062;BME280;2351;50.812;12.872;2023-11-22T06:41:05;98847.56;;;-2.30;100.00
5062;BME280;2351;50.812;12.872;2023-11-22T06:43:38;98858.00;;;-2.33;100.00
5062;BME280;2351;50.812;12.872;2023-11-22T06:46:10;98864.06;;;-2.32;100.00
5062;BME280;2351;50.812;12.872;2023-11-22T06:48:41;98863.19;;;-2.33;100.00
5062;BME280;2351;50.812;12.872;2023-11-22T06:51:14;98860.53;;;-2.30;100.00
5062;BME280;2351;50.812;12.872;2023-11-22T06:53:46;98864.06;;;-2.32;100.00
5062;BME280;2351;50.812;12.872;2023-11-22T06:56:17;98873.56;;;-2.33;100.00
5062;BME280;2351;50.812;12.872;2023-11-22T06:58:50;98876.97;;;-2.31;100.00
5062;BME280;2351;50.812;12.872;2023-11-22T07:01:23;98869.94;;;-2.24;100.00
5062;BME280;2351;50.812;12.872;2023-11-22T07:03:56;98869.09;;;-2.24;100.00
5062;BME280;2351;50.812;12.872;2023-11-22T07:06:29;98882.06;;;-2.24;100.00
5062;BME280;2351;50.812;12.872;2023-11-22T07:09:01;98885.53;;;-2.25;100.00
5062;BME280;2351;50.812;12.872;2023-11-22T07:11:33;98887.25;;;-2.24;100.00
5062;BME280;2351;50.812;12.872;2023-11-22T07:14:06;98893.22;;;-2.21;100.00
5062;BME280;2351;50.812;12.872;2023-11-22T07:16:38;98896.69;;;-2.22;100.00
5062;BME280;2351;50.812;12.872;2023-11-22T07:19:10;98893.47;;;-2.33;100.00
5062;BME280;2351;50.812;12.872;2023-11-22T07:21:43;98895.13;;;-2.31;100.00
5062;BME280;2351;50.812;12.872;2023-11-22T07:24:14;98890.84;;;-2.32;100.00
5062;BME280;2351;50.812;12.872;2023-11-22T07:26:46;98886.44;;;-2.28;100.00
5062;BME280;2351;50.812;12.872;2023-11-22T07:29:19;98895.91;;;-2.25;100.00
5062;BME280;2351;50.812;12.872;2023-11-22T07:31:51;98892.53;;;-2.31;100.00
5062;BME280;2351;50.812;12.872;2023-11-22T07:34:23;98902.88;;;-2.29;100.00
5062;BME280;2351;50.812;12.872;2023-11-22T07:36:54;98909.91;;;-2.36;100.00
5062;BME280;2351;50.812;12.872;2023-11-22T07:39:26;98902.06;;;-2.31;100.00
5062;BME280;2351;50.812;12.872;2023-11-22T07:41:58;98907.41;;;-2.40;100.00
5062;BME280;2351;50.812;12.872;2023-11-22T07:44:31;98914.31;;;-2.39;100.00
5062;BME280;2351;50.812;12.872;2023-11-22T07:47:03;98913.28;;;-2.31;100.00
5062;BME280;2351;50.812;12.872;2023-11-22T07:49:38;98913.34;;;-2.34;100.00
5062;BME280;2351;50.812;12.872;2023-11-22T07:52:12;98932.28;;;-2.29;100.00
5062;BME280;2351;50.812;12.872;2023-11-22T07:54:44;98927.88;;;-2.25;100.00
5062;BME280;2351;50.812;12.872;2023-11-22T07:57:16;98935.66;;;-2.25;100.00
5062;BME280;2351;50.812;12.872;2023-11-22T07:59:51;98939.88;;;-2.19;100.00
5062;BME280;2351;50.812;12.872;2023-11-22T08:02:25;98951.97;;;-2.17;100.00
5062;BME280;2351;50.812;12.872;2023-11-22T08:04:57;98963.22;;;-2.18;100.00
5062;BME280;2351;50.812;12.872;2023-11-22T08:07:32;98968.56;;;-2.27;100.00
5062;BME280;2351;50.812;12.872;2023-11-22T08:10:04;98967.66;;;-2.24;100.00
5062;BME280;2351;50.812;12.872;2023-11-22T08:12:39;98970.25;;;-2.24;100.00
5062;BME280;2351;50.812;12.872;2023-11-22T08:15:13;98969.47;;;-2.31;100.00
5062;BME280;2351;50.812;12.872;2023-11-22T08:17:46;98974.72;;;-2.33;100.00
5062;BME280;2351;50.812;12.872;2023-11-22T08:20:17;98972.28;;;-2.44;100.00
5062;BME280;2351;50.812;12.872;2023-11-22T08:22:50;98978.31;;;-2.42;100.00
5062;BME280;2351;50.812;12.872;2023-11-22T08:25:21;98986.13;;;-2.43;100.00
5062;BME280;2351;50.812;12.872;2023-11-22T08:27:53;98973.13;;;-2.42;100.00
5062;BME280;2351;50.812;12.872;2023-11-22T08:30:26;98968.88;;;-2.46;100.00
5062;BME280;2351;50.812;12.872;2023-11-22T08:32:58;98970.66;;;-2.49;100.00
5062;BME280;2351;50.812;12.872;2023-11-22T08:35:29;98978.53;;;-2.54;100.00
5062;BME280;2351;50.812;12.872;2023-11-22T08:38:01;98972.50;;;-2.56;100.00
5062;BME280;2351;50.812;12.872;2023-11-22T08:40:33;98959.59;;;-2.59;100.00
5062;BME280;2351;50.812;12.872;2023-11-22T08:43:07;98962.19;;;-2.59;100.00
5062;BME280;2351;50.812;12.872;2023-11-22T08:45:40;98953.53;;;-2.58;100.00
5062;BME280;2351;50.812;12.872;2023-11-22T08:48:14;98961.34;;;-2.61;100.00
5062;BME280;2351;50.812;12.872;2023-11-22T08:50:47;98949.22;;;-2.59;100.00
5062;BME280;2351;50.812;12.872;2023-11-22T08:53:19;98949.19;;;-2.58;100.00
5062;BME280;2351;50.812;12.872;2023-11-22T08:55:51;98954.50;;;-2.65;100.00
5062;BME280;2351;50.812;12.872;2023-11-22T08:58:24;98951.88;;;-2.62;100.00
5062;BME280;2351;50.812;12.872;2023-11-22T09:00:58;98945.72;;;-2.55;100.00
5062;BME280;2351;50.812;12.872;2023-11-22T09:03:30;98943.03;;;-2.50;100.00
5062;BME280;2351;50.812;12.872;2023-11-22T09:06:03;98947.28;;;-2.46;100.00
5062;BME280;2351;50.812;12.872;2023-11-22T09:08:37;98952.44;;;-2.45;100.00
5062;BME280;2351;50.812;12.872;2023-11-22T09:11:09;98957.66;;;-2.46;100.00
5062;BME280;2351;50.812;12.872;2023-11-22T09:13:41;98955.84;;;-2.43;100.00
5062;BME280;2351;50.812;12.872;2023-11-22T09:16:14;98967.03;;;-2.39;100.00
5062;BME280;2351;50.812;12.872;2023-11-22T09:18:47;98975.72;;;-2.42;100.00
5062;BME280;2351;50.812;12.872;2023-11-22T09:21:19;98962.84;;;-2.46;100.00
5062;BME280;2351;50.812;12.872;2023-11-22T09:23:51;98962.72;;;-2.38;100.00
5062;BME280;2351;50.812;12.872;2023-11-22T09:26:23;98964.34;;;-2.33;100.00
5062;BME280;2351;50.812;12.872;2023-11-22T09:28:55;98971.19;;;-2.30;100.00
5062;BME280;2351;50.812;12.872;2023-11-22T09:31:28;98972.91;;;-2.29;100.00
5062;BME280;2351;50.812;12.872;2023-11-22T09:33:59;98967.81;;;-2.32;100.00
5062;BME280;2351;50.812;12.872;2023-11-22T09:36:31;98984.19;;;-2.32;100.00
5062;BME280;2351;50.812;12.872;2023-11-22T09:39:04;98986.84;;;-2.33;100.00
5062;BME280;2351;50.812;12.872;2023-11-22T09:41:38;98989.34;;;-2.30;100.00
5062;BME280;2351;50.812;12.872;2023-11-22T09:44:10;98990.31;;;-2.36;100.00
5062;BME280;2351;50.812;12.872;2023-11-22T09:46:44;98999.00;;;-2.38;100.00
5062;BME280;2351;50.812;12.872;2023-11-22T09:49:20;98992.03;;;-2.33;100.00
5062;BME280;2351;50.812;12.872;2023-11-22T09:51:57;99005.78;;;-2.31;100.00
5062;BME280;2351;50.812;12.872;2023-11-22T09:54:34;99011.06;;;-2.36;100.00
5062;BME280;2351;50.812;12.872;2023-11-22T09:57:07;98999.91;;;-2.39;100.00
5062;BME280;2351;50.812;12.872;2023-11-22T09:59:41;99004.91;;;-2.30;100.00
5062;BME280;2351;50.812;12.872;2023-11-22T10:02:14;99003.06;;;-2.22;100.00
5062;BME280;2351;50.812;12.872;2023-11-22T10:04:46;98990.13;;;-2.25;100.00
5062;BME280;2351;50.812;12.872;2023-11-22T10:07:18;98990.22;;;-2.30;100.00
5062;BME280;2351;50.812;12.872;2023-11-22T10:09:50;98988.59;;;-2.35;100.00
5062;BME280;2351;50.812;12.872;2023-11-22T10:12:22;98985.13;;;-2.34;100.00
5062;BME280;2351;50.812;12.872;2023-11-22T10:14:53;98979.84;;;-2.31;100.00
5062;BME280;2351;50.812;12.872;2023-11-22T10:17:26;98981.69;;;-2.38;100.00
5062;BME280;2351;50.812;12.872;2023-11-22T10:19:58;98979.81;;;-2.28;100.00
5062;BME280;2351;50.812;12.872;2023-11-22T10:22:30;98984.00;;;-2.21;100.00
5062;BME280;2351;50.812;12.872;2023-11-22T10:25:02;98974.47;;;-2.19;100.00
5062;BME280;2351;50.812;12.872;2023-11-22T10:27:38;98983.09;;;-2.17;100.00
5062;BME280;2351;50.812;12.872;2023-11-22T10:30:11;98959.88;;;-2.26;100.00
5062;BME280;2351;50.812;12.872;2023-11-22T10:32:44;98960.78;;;-2.27;100.00
5062;BME280;2351;50.812;12.872;2023-11-22T10:35:16;98964.16;;;-2.22;100.00
5062;BME280;2351;50.812;12.872;2023-11-22T10:37:48;98957.28;;;-2.26;100.00
5062;BME280;2351;50.812;12.872;2023-11-22T10:40:20;98957.28;;;-2.26;100.00
5062;BME280;2351;50.812;12.872;2023-11-22T10:42:52;98957.25;;;-2.23;100.00
5062;BME280;2351;50.812;12.872;2023-11-22T10:45:29;98958.81;;;-2.14;100.00
5062;BME280;2351;50.812;12.872;2023-11-22T10:48:03;98970.91;;;-2.12;100.00
5062;BME280;2351;50.812;12.872;2023-11-22T10:50:35;98975.31;;;-2.18;100.00
5062;BME280;2351;50.812;12.872;2023-11-22T10:53:11;98981.31;;;-2.15;100.00
5062;BME280;2351;50.812;12.872;2023-11-22T10:55:45;98987.25;;;-2.08;100.00
5062;BME280;2351;50.812;12.872;2023-11-22T10:58:18;98997.63;;;-2.09;100.00
5062;BME280;2351;50.812;12.872;2023-11-22T11:00:51;98995.13;;;-2.14;100.00
5062;BME280;2351;50.812;12.872;2023-11-22T11:03:28;99001.16;;;-2.10;100.00
5062;BME280;2351;50.812;12.872;2023-11-22T11:06:02;99004.44;;;-2.02;100.00
5062;BME280;2351;50.812;12.872;2023-11-22T11:08:37;99006.94;;;-1.96;100.00
5062;BME280;2351;50.812;12.872;2023-11-22T11:11:09;99007.91;;;-2.03;100.00
5062;BME280;2351;50.812;12.872;2023-11-22T11:13:43;99010.56;;;-2.06;100.00
5062;BME280;2351;50.812;12.872;2023-11-22T11:16:16;99015.88;;;-2.13;100.00
5062;BME280;2351;50.812;12.872;2023-11-22T11:18:50;99011.56;;;-2.14;100.00
5062;BME280;2351;50.812;12.872;2023-11-22T11:21:22;99009.81;;;-2.12;100.00
5062;BME280;2351;50.812;12.872;2023-11-22T11:23:55;99009.78;;;-2.10;100.00
5062;BME280;2351;50.812;12.872;2023-11-22T11:26:33;99013.16;;;-2.05;100.00
5062;BME280;2351;50.812;12.872;2023-11-22T11:29:06;99020.84;;;-2.00;100.00
5062;BME280;2351;50.812;12.872;2023-11-22T11:31:38;99023.44;;;-2.00;100.00
5062;BME280;2351;50.812;12.872;2023-11-22T11:34:13;99024.25;;;-1.98;100.00
5062;BME280;2351;50.812;12.872;2023-11-22T11:36:52;99015.56;;;-1.95;100.00
5062;BME280;2351;50.812;12.872;2023-11-22T11:39:25;99007.66;;;-1.88;100.00
5062;BME280;2351;50.812;12.872;2023-11-22T11:42:09;99018.00;;;-1.86;100.00
5062;BME280;2351;50.812;12.872;2023-11-22T11:44:52;99019.81;;;-1.91;100.00
5062;BME280;2351;50.812;12.872;2023-11-22T11:47:33;99030.25;;;-1.94;100.00
5062;BME280;2351;50.812;12.872;2023-11-22T11:50:07;99023.47;;;-2.02;100.00
5062;BME280;2351;50.812;12.872;2023-11-22T11:52:39;99033.91;;;-2.06;100.00
5062;BME280;2351;50.812;12.872;2023-11-22T11:55:10;99027.84;;;-2.04;100.00
5062;BME280;2351;50.812;12.872;2023-11-22T11:57:42;99027.69;;;-1.98;100.00
5062;BME280;2351;50.812;12.872;2023-11-22T12:00:17;99028.44;;;-1.89;100.00
5062;BME280;2351;50.812;12.872;2023-11-22T12:02:48;99026.03;;;-1.99;100.00
5062;BME280;2351;50.812;12.872;2023-11-22T12:05:21;99020.88;;;-2.03;100.00
5062;BME280;2351;50.812;12.872;2023-11-22T12:07:55;99027.84;;;-2.05;100.00
5062;BME280;2351;50.812;12.872;2023-11-22T12:10:27;99026.13;;;-2.06;100.00
5062;BME280;2351;50.812;12.872;2023-11-22T12:12:58;99013.88;;;-1.98;100.00
5062;BME280;2351;50.812;12.872;2023-11-22T12:15:30;99028.56;;;-1.97;100.00
5062;BME280;2351;50.812;12.872;2023-11-22T12:18:03;99040.81;;;-2.05;100.00
5062;BME280;2351;50.812;12.872;2023-11-22T12:20:38;99039.00;;;-2.00;100.00
5062;BME280;2351;50.812;12.872;2023-11-22T12:23:10;99032.84;;;-1.94;100.00
5062;BME280;2351;50.812;12.872;2023-11-22T12:25:43;99025.25;;;-2.05;100.00
5062;BME280;2351;50.812;12.872;2023-11-22T12:28:16;99016.63;;;-2.07;100.00
5062;BME280;2351;50.812;12.872;2023-11-22T12:30:48;99010.50;;;-2.03;100.00
5062;BME280;2351;50.812;12.872;2023-11-22T12:33:21;98994.84;;;-1.97;100.00
5062;BME280;2351;50.812;12.872;2023-11-22T12:35:54;98993.06;;;-1.95;100.00
5062;BME280;2351;50.812;12.872;2023-11-22T12:38:27;98998.31;;;-1.98;100.00
5062;BME280;2351;50.812;12.872;2023-11-22T12:40:58;98999.09;;;-1.94;100.00
5062;BME280;2351;50.812;12.872;2023-11-22T12:43:32;98986.28;;;-2.02;100.00
5062;BME280;2351;50.812;12.872;2023-11-22T12:46:05;98972.41;;;-2.01;100.00
5062;BME280;2351;50.812;12.872;2023-11-22T12:48:38;98960.22;;;-1.96;100.00
5062;BME280;2351;50.812;12.872;2023-11-22T12:51:16;98961.78;;;-1.87;100.00
5062;BME280;2351;50.812;12.872;2023-11-22T12:53:48;98964.44;;;-1.90;100.00
5062;BME280;2351;50.812;12.872;2023-11-22T12:56:20;98961.09;;;-1.97;100.00
5062;BME280;2351;50.812;12.872;2023-11-22T12:58:52;98962.16;;;-2.07;100.00
5062;BME280;2351;50.812;12.872;2023-11-22T13:01:24;98964.69;;;-2.04;100.00
5062;BME280;2351;50.812;12.872;2023-11-22T13:03:55;98965.34;;;-1.93;100.00
5062;BME280;2351;50.812;12.872;2023-11-22T13:06:28;98957.41;;;-1.85;100.00
5062;BME280;2351;50.812;12.872;2023-11-22T13:09:00;98952.13;;;-1.79;100.00
5062;BME280;2351;50.812;12.872;2023-11-22T13:11:32;98931.34;;;-1.79;100.00
5062;BME280;2351;50.812;12.872;2023-11-22T13:14:05;98933.06;;;-1.79;100.00
5062;BME280;2351;50.812;12.872;2023-11-22T13:16:37;98932.34;;;-1.86;100.00
5062;BME280;2351;50.812;12.872;2023-11-22T13:19:09;98928.03;;;-1.87;100.00
5062;BME280;2351;50.812;12.872;2023-11-22T13:21:42;98933.13;;;-1.81;100.00
5062;BME280;2351;50.812;12.872;2023-11-22T13:24:15;98931.34;;;-1.79;100.00
5062;BME280;2351;50.812;12.872;2023-11-22T13:26:48;98941.66;;;-1.76;100.00